createdAt,value
2024-02-08T00:02:29.035Z,6.60
2024-02-08T00:04:59.718Z,8.60
2024-02-08T00:07:30.386Z,9.10
2024-02-08T00:10:01.133Z,10.30
2024-02-08T00:12:31.830Z,8.40
2024-02-08T00:15:02.569Z,9.00
2024-02-08T00:17:33.272Z,5.90
2024-02-08T00:20:04.271Z,6.80
2024-02-08T00:22:35.119Z,11.00
2024-02-08T00:25:06.044Z,12.70
2024-02-08T00:27:36.681Z,9.30
2024-02-08T00:30:08.951Z,11.60
2024-02-08T00:35:11.912Z,10.30
2024-02-08T00:37:42.997Z,9.40
2024-02-08T00:40:15.448Z,11.30
2024-02-08T00:45:23.289Z,8.40
2024-02-08T00:47:55.856Z,11.00
2024-02-08T00:50:27.128Z,8.30
2024-02-08T00:52:59.398Z,11.90
2024-02-08T00:58:03.536Z,9.00
2024-02-08T01:00:39.428Z,11.30
2024-02-08T01:03:11.320Z,10.50
2024-02-08T01:05:43.106Z,11.20
2024-02-08T01:08:13.932Z,12.80
2024-02-08T01:10:44.770Z,11.70
2024-02-08T01:13:18.766Z,10.30
2024-02-08T01:15:50.911Z,15.90
2024-02-08T01:18:21.819Z,11.70
2024-02-08T01:20:52.781Z,13.50
2024-02-08T01:23:24.171Z,11.80
2024-02-08T01:25:54.924Z,11.70
2024-02-08T01:28:25.626Z,8.80
2024-02-08T01:30:56.356Z,12.30
2024-02-08T01:33:26.961Z,10.70
2024-02-08T01:35:58.231Z,12.70
2024-02-08T01:38:28.843Z,11.80
2024-02-08T01:40:59.451Z,9.00
2024-02-08T01:43:33.236Z,14.70
2024-02-08T01:46:03.912Z,12.50
2024-02-08T01:48:34.959Z,11.10
2024-02-08T01:51:06.332Z,12.00
2024-02-08T01:53:37.000Z,10.40
2024-02-08T01:56:12.546Z,11.30
2024-02-08T01:58:48.708Z,11.90
2024-02-08T02:01:23.714Z,11.10
2024-02-08T02:03:54.609Z,12.80
2024-02-08T02:06:25.506Z,11.80
2024-02-08T02:13:11.585Z,11.30
2024-02-08T02:18:13.559Z,11.40
2024-02-08T02:20:45.204Z,8.20
2024-02-08T02:23:20.026Z,10.70
2024-02-08T02:25:52.872Z,10.40
2024-02-08T02:28:24.239Z,9.50
2024-02-08T02:30:55.265Z,10.80
2024-02-08T02:33:27.637Z,11.30
2024-02-08T02:35:58.535Z,14.30
2024-02-08T02:38:29.213Z,16.00
2024-02-08T02:41:06.788Z,12.20
2024-02-08T02:43:38.967Z,13.40
2024-02-08T02:46:11.444Z,12.90
2024-02-08T02:48:42.695Z,14.90
2024-02-08T02:51:13.724Z,10.00
2024-02-08T02:53:44.450Z,14.00
2024-02-08T02:56:15.105Z,11.50
2024-02-08T02:58:46.725Z,9.90
2024-02-08T03:01:17.524Z,10.40
2024-02-08T03:03:49.193Z,11.10
2024-02-08T03:06:19.958Z,19.20
2024-02-08T03:08:51.238Z,9.90
2024-02-08T03:11:22.201Z,9.20
2024-02-08T03:13:52.978Z,13.20
2024-02-08T03:16:29.626Z,10.80
2024-02-08T03:19:01.056Z,11.70
2024-02-08T03:21:33.973Z,8.60
2024-02-08T03:24:08.880Z,9.50
2024-02-08T03:26:46.174Z,13.30
2024-02-08T03:29:17.588Z,10.90
2024-02-08T03:31:49.118Z,10.30
2024-02-08T03:34:25.575Z,9.30
2024-02-08T03:36:57.301Z,12.00
2024-02-08T03:39:28.612Z,9.40
2024-02-08T03:42:00.837Z,13.70
2024-02-08T03:44:32.208Z,13.70
2024-02-08T03:47:06.534Z,10.60
2024-02-08T03:49:38.074Z,16.40
2024-02-08T03:52:11.059Z,13.30
2024-02-08T03:54:47.101Z,11.20
2024-02-08T03:57:20.309Z,13.40
2024-02-08T03:59:53.668Z,12.00
2024-02-08T04:02:24.398Z,14.30
2024-02-08T04:04:55.794Z,9.10
2024-02-08T04:07:36.103Z,12.30
2024-02-08T04:10:20.480Z,14.60
2024-02-08T04:13:09.309Z,17.60
2024-02-08T04:16:00.386Z,13.30
2024-02-08T04:21:35.427Z,14.60
2024-02-08T04:24:24.426Z,12.60
2024-02-08T04:27:12.755Z,11.40
2024-02-08T04:30:01.321Z,13.00
2024-02-08T04:32:49.958Z,9.60
2024-02-08T04:35:38.556Z,8.80
2024-02-08T04:38:26.874Z,12.00
2024-02-08T04:41:15.711Z,11.50
2024-02-08T04:44:04.104Z,9.50
2024-02-08T04:46:52.455Z,9.50
2024-02-08T04:49:41.109Z,12.10
2024-02-08T04:52:29.447Z,11.60
2024-02-08T04:55:01.124Z,10.00
2024-02-08T04:57:31.819Z,11.40
2024-02-08T05:00:02.818Z,11.00
2024-02-08T05:02:33.504Z,12.50
2024-02-08T05:05:08.036Z,11.10
2024-02-08T05:07:38.753Z,10.20
2024-02-08T05:10:12.194Z,12.60
2024-02-08T05:12:46.195Z,10.30
2024-02-08T05:15:16.910Z,13.10
2024-02-08T05:17:47.531Z,12.60
2024-02-08T05:20:18.302Z,10.60
2024-02-08T05:22:49.322Z,13.20
2024-02-08T05:25:25.413Z,11.50
2024-02-08T05:27:56.989Z,10.90
2024-02-08T05:30:27.735Z,8.70
2024-02-08T05:33:00.614Z,10.90
2024-02-08T05:35:34.143Z,7.70
2024-02-08T05:38:05.227Z,12.00
2024-02-08T05:40:42.323Z,12.60
2024-02-08T05:43:13.130Z,8.90
2024-02-08T05:45:45.108Z,10.50
2024-02-08T05:48:18.648Z,12.40
2024-02-08T05:50:51.164Z,12.00
2024-02-08T05:53:21.767Z,9.50
2024-02-08T05:55:53.891Z,10.40
2024-02-08T05:58:24.642Z,11.90
2024-02-08T06:01:02.755Z,9.90
2024-02-08T06:03:39.059Z,12.70
2024-02-08T06:06:17.496Z,10.30
2024-02-08T06:08:57.449Z,13.70
2024-02-08T06:11:28.299Z,10.10
2024-02-08T06:14:01.103Z,11.90
2024-02-08T06:16:46.807Z,12.80
2024-02-08T06:19:19.577Z,16.70
2024-02-08T06:21:55.960Z,16.20
2024-02-08T06:24:33.728Z,10.60
2024-02-08T06:27:14.770Z,13.80
2024-02-08T06:29:47.991Z,13.60
2024-02-08T06:32:45.173Z,14.60
2024-02-08T06:35:26.796Z,11.00
2024-02-08T06:38:01.676Z,13.10
2024-02-08T06:40:52.404Z,16.50
2024-02-08T06:43:46.753Z,11.00
2024-02-08T06:46:29.561Z,12.80
2024-02-08T06:49:17.962Z,14.40
2024-02-08T06:52:06.388Z,12.40
2024-02-08T06:54:54.810Z,11.30
2024-02-08T06:57:58.785Z,12.70
2024-02-08T07:00:47.097Z,11.70
2024-02-08T07:03:35.747Z,14.80
2024-02-08T07:06:24.169Z,12.30
2024-02-08T07:09:12.651Z,13.90
2024-02-08T07:12:01.193Z,12.80
2024-02-08T07:14:50.293Z,12.90
2024-02-08T07:17:38.571Z,10.90
2024-02-08T07:20:28.959Z,13.10
2024-02-08T07:23:17.539Z,13.90
2024-02-08T07:26:06.046Z,12.70
2024-02-08T07:28:54.195Z,13.30
2024-02-08T07:31:42.605Z,14.70
2024-02-08T07:34:31.142Z,10.70
2024-02-08T07:37:20.220Z,9.80
2024-02-08T07:39:55.264Z,9.50
2024-02-08T07:42:33.734Z,10.90
2024-02-08T07:45:06.537Z,14.50
2024-02-08T07:47:37.445Z,14.60
2024-02-08T07:50:10.067Z,17.20
2024-02-08T07:57:59.407Z,19.80
2024-02-08T08:00:43.932Z,15.80
2024-02-08T08:03:18.212Z,20.20
2024-02-08T08:05:58.050Z,20.60
2024-02-08T08:08:30.313Z,21.70
2024-02-08T08:11:04.960Z,16.40
2024-02-08T08:14:08.493Z,16.90
2024-02-08T08:16:59.367Z,17.50
2024-02-08T08:19:40.657Z,17.20
2024-02-08T08:22:51.744Z,18.70
2024-02-08T08:25:46.324Z,12.50
2024-02-08T08:28:31.815Z,14.00
2024-02-08T08:31:23.038Z,14.20
2024-02-08T08:34:23.252Z,13.50
2024-02-08T08:37:04.533Z,17.30
2024-02-08T08:40:22.175Z,22.00
2024-02-08T08:42:56.162Z,16.20
2024-02-08T08:45:27.214Z,14.80
2024-02-08T08:48:02.678Z,20.20
2024-02-08T08:50:33.661Z,15.60
2024-02-08T08:53:18.324Z,18.60
2024-02-08T08:58:24.147Z,20.00
2024-02-08T09:01:00.551Z,14.30
2024-02-08T09:03:31.592Z,19.20
2024-02-08T09:06:04.321Z,17.00
2024-02-08T09:08:43.594Z,19.40
2024-02-08T09:11:15.996Z,18.10
2024-02-08T09:16:38.558Z,14.40
2024-02-08T09:19:15.374Z,16.30
2024-02-08T09:21:47.188Z,16.70
2024-02-08T09:24:20.031Z,19.10
2024-02-08T09:26:53.099Z,13.10
2024-02-08T09:29:30.015Z,13.20
2024-02-08T09:32:17.433Z,15.40
2024-02-08T09:34:54.800Z,16.30
2024-02-08T09:37:25.689Z,14.80
2024-02-08T09:40:00.564Z,13.00
2024-02-08T09:42:31.928Z,13.80
2024-02-08T09:45:15.817Z,14.20
2024-02-08T09:47:53.545Z,17.20
2024-02-08T09:50:37.096Z,12.80
2024-02-08T09:53:17.495Z,14.20
2024-02-08T09:55:56.644Z,11.50
2024-02-08T09:58:39.300Z,15.00
2024-02-08T10:01:24.181Z,14.20
2024-02-08T10:04:06.393Z,16.50
2024-02-08T10:06:47.458Z,12.60
2024-02-08T10:09:38.521Z,12.40
2024-02-08T10:12:20.392Z,13.10
2024-02-08T10:15:01.373Z,15.80
2024-02-08T10:17:42.667Z,14.20
2024-02-08T10:20:37.737Z,13.60
2024-02-08T10:23:35.054Z,12.20
2024-02-08T10:26:28.242Z,11.20
2024-02-08T10:29:15.731Z,10.00
2024-02-08T10:32:01.342Z,12.90
2024-02-08T10:34:41.530Z,10.00
2024-02-08T10:37:36.970Z,15.10
2024-02-08T10:40:23.880Z,11.40
2024-02-08T10:43:00.335Z,11.30
2024-02-08T10:45:33.732Z,12.70
2024-02-08T10:48:07.859Z,12.30
2024-02-08T10:50:43.171Z,10.50
2024-02-08T10:53:17.773Z,12.10
2024-02-08T10:55:53.902Z,10.30
2024-02-08T10:58:29.256Z,13.60
2024-02-08T11:01:14.650Z,12.40
2024-02-08T11:03:54.233Z,11.30
2024-02-08T11:06:33.786Z,12.90
2024-02-08T11:09:19.838Z,8.80
2024-02-08T11:12:00.522Z,9.80
2024-02-08T11:14:36.127Z,11.50
2024-02-08T11:17:12.662Z,10.80
2024-02-08T11:19:58.453Z,12.10
2024-02-08T11:22:44.194Z,8.80
2024-02-08T11:25:24.878Z,10.90
2024-02-08T11:28:00.234Z,9.30
2024-02-08T11:30:36.837Z,8.60
2024-02-08T11:33:13.698Z,10.60
2024-02-08T11:35:55.601Z,11.60
2024-02-08T11:38:31.396Z,10.00
2024-02-08T11:41:12.240Z,9.30
2024-02-08T11:43:48.425Z,10.00
2024-02-08T11:46:21.639Z,12.90
2024-02-08T11:48:55.212Z,14.80
2024-02-08T11:51:26.519Z,12.60
2024-02-08T11:54:10.625Z,13.00
2024-02-08T11:56:42.154Z,7.70
2024-02-08T11:59:15.407Z,10.70
2024-02-08T12:01:46.667Z,10.50
2024-02-08T12:04:18.869Z,8.40
2024-02-08T12:06:50.865Z,11.30
2024-02-08T12:09:31.528Z,10.20
2024-02-08T12:12:04.425Z,8.70
2024-02-08T12:14:39.994Z,10.50
2024-02-08T12:17:11.741Z,14.10
2024-02-08T12:19:42.992Z,10.80
2024-02-08T12:22:16.936Z,12.80
2024-02-08T12:24:47.789Z,8.10
2024-02-08T12:27:26.918Z,11.20
2024-02-08T12:29:59.151Z,9.60
2024-02-08T12:32:32.886Z,12.30
2024-02-08T12:35:14.893Z,9.50
2024-02-08T12:37:47.670Z,11.50
2024-02-08T12:40:21.058Z,11.50
2024-02-08T12:42:54.904Z,8.70
2024-02-08T12:45:29.889Z,11.60
2024-02-08T12:48:06.010Z,12.10
2024-02-08T12:50:39.940Z,9.90
2024-02-08T12:53:14.899Z,13.20
2024-02-08T12:55:48.502Z,10.50
2024-02-08T12:58:25.301Z,13.00
2024-02-08T13:01:06.153Z,9.10
2024-02-08T13:03:38.473Z,9.80
2024-02-08T13:06:14.288Z,15.50
2024-02-08T13:08:47.122Z,11.30
2024-02-08T13:11:23.743Z,10.10
2024-02-08T13:13:57.215Z,8.50
2024-02-08T13:16:27.985Z,9.30
2024-02-08T13:19:01.363Z,7.80
2024-02-08T13:21:32.771Z,10.80
2024-02-08T13:24:08.686Z,12.00
2024-02-08T13:26:40.366Z,8.10
2024-02-08T13:29:12.462Z,9.10
2024-02-08T13:31:46.494Z,7.90
2024-02-08T13:34:28.341Z,8.20
2024-02-08T13:37:00.613Z,12.20
2024-02-08T13:39:33.964Z,10.50
2024-02-08T13:42:04.779Z,11.00
2024-02-08T13:44:35.610Z,13.40
2024-02-08T13:47:14.600Z,11.00
2024-02-08T13:49:50.571Z,9.20
2024-02-08T13:52:21.686Z,11.20
2024-02-08T13:54:52.438Z,11.10
2024-02-08T13:57:23.108Z,13.00
2024-02-08T13:59:56.715Z,9.70
2024-02-08T14:02:27.453Z,10.90
2024-02-08T14:05:00.647Z,8.40
2024-02-08T14:07:31.838Z,10.60
2024-02-08T14:10:07.996Z,12.40
2024-02-08T14:12:46.416Z,9.20
2024-02-08T14:20:42.612Z,8.20
2024-02-08T14:23:16.143Z,8.00
2024-02-08T14:26:31.514Z,10.10
2024-02-08T14:29:04.178Z,8.80
2024-02-08T14:31:39.025Z,10.80
2024-02-08T14:34:12.693Z,11.90
2024-02-08T14:36:48.315Z,10.70
2024-02-08T14:39:34.257Z,10.70
2024-02-08T14:42:12.171Z,7.80
2024-02-08T14:44:45.571Z,10.70
2024-02-08T14:47:23.328Z,11.50
2024-02-08T14:50:01.143Z,11.20
2024-02-08T14:52:38.069Z,12.60
2024-02-08T14:55:22.785Z,10.80
2024-02-08T14:58:01.082Z,8.90
2024-02-08T15:00:50.248Z,9.70
2024-02-08T15:03:29.418Z,13.80
2024-02-08T15:06:06.683Z,8.90
2024-02-08T15:08:55.961Z,13.40
2024-02-08T15:11:58.698Z,11.00
2024-02-08T15:14:36.925Z,11.00
2024-02-08T15:17:09.799Z,14.20
2024-02-08T15:19:46.896Z,11.00
2024-02-08T15:22:41.529Z,9.90
2024-02-08T15:25:17.900Z,10.60
2024-02-08T15:27:54.543Z,12.40
2024-02-08T15:30:38.153Z,15.10
2024-02-08T15:33:30.574Z,15.90
2024-02-08T15:36:11.778Z,12.80
2024-02-08T15:39:01.735Z,12.50
2024-02-08T15:41:45.385Z,12.40
2024-02-08T15:44:20.419Z,11.40
2024-02-08T15:46:51.234Z,13.50
2024-02-08T15:49:30.286Z,10.30
2024-02-08T15:52:01.271Z,13.40
2024-02-08T15:54:39.597Z,13.40
2024-02-08T15:57:12.595Z,15.70
2024-02-08T15:59:46.205Z,15.10
2024-02-08T16:02:19.599Z,15.90
2024-02-08T16:04:52.844Z,11.30
2024-02-08T16:07:29.492Z,12.80
2024-02-08T16:10:00.567Z,15.90
2024-02-08T16:12:40.857Z,13.20
2024-02-08T16:15:18.905Z,12.80
2024-02-08T16:18:01.781Z,12.40
2024-02-08T16:20:40.106Z,13.60
2024-02-08T16:23:15.711Z,14.30
2024-02-08T16:25:47.195Z,13.10
2024-02-08T16:28:20.118Z,16.60
2024-02-08T16:31:09.209Z,15.80
2024-02-08T16:33:49.544Z,15.60
2024-02-08T16:36:36.624Z,19.80
2024-02-08T16:39:09.318Z,15.50
2024-02-08T16:41:49.915Z,15.30
2024-02-08T16:44:31.007Z,16.40
2024-02-08T16:47:07.186Z,16.30
2024-02-08T16:49:43.850Z,15.20
2024-02-08T16:52:20.864Z,17.30
2024-02-08T16:55:01.601Z,16.60
2024-02-08T16:57:33.136Z,18.10
2024-02-08T17:00:18.036Z,14.30
2024-02-08T17:03:05.609Z,15.70
2024-02-08T17:05:50.828Z,16.00
2024-02-08T17:08:23.553Z,18.20
2024-02-08T17:11:02.530Z,16.20
2024-02-08T17:13:46.251Z,20.10
2024-02-08T17:16:36.964Z,17.40
2024-02-08T17:19:26.138Z,18.90
2024-02-08T17:22:30.617Z,21.20
2024-02-08T17:25:25.411Z,21.80
2024-02-08T17:28:16.025Z,24.70
2024-02-08T17:31:05.186Z,25.00
2024-02-08T17:33:48.410Z,22.40
2024-02-08T17:36:20.365Z,22.60
2024-02-08T17:38:56.380Z,22.10
2024-02-08T17:41:28.489Z,22.40
2024-02-08T17:44:05.123Z,23.10
2024-02-08T17:46:39.771Z,21.80
2024-02-08T17:49:17.323Z,23.10
2024-02-08T17:51:51.349Z,24.80
2024-02-08T17:54:26.589Z,24.30
2024-02-08T17:57:03.245Z,22.10
2024-02-08T17:59:34.465Z,23.20
2024-02-08T18:02:07.602Z,20.30
2024-02-08T18:04:39.187Z,28.70
2024-02-08T18:07:13.088Z,27.70
2024-02-08T18:09:55.217Z,29.60
2024-02-08T18:12:35.603Z,25.00
2024-02-08T18:15:13.958Z,29.30
2024-02-08T18:17:46.933Z,28.20
2024-02-08T18:20:18.139Z,31.30
2024-02-08T18:22:49.940Z,28.50
2024-02-08T18:25:30.461Z,36.30
2024-02-08T18:28:07.310Z,32.10
2024-02-08T18:30:38.888Z,33.80
2024-02-08T18:33:10.340Z,33.60
2024-02-08T18:35:41.213Z,32.30
2024-02-08T18:38:13.943Z,34.60
2024-02-08T18:40:49.016Z,32.70
2024-02-08T18:43:21.014Z,32.90
2024-02-08T18:45:53.677Z,33.70
2024-02-08T18:48:25.040Z,34.80
2024-02-08T18:50:57.345Z,36.10
2024-02-08T18:53:30.760Z,35.20
2024-02-08T18:56:03.354Z,40.00
2024-02-08T18:58:34.999Z,34.10
2024-02-08T19:01:08.832Z,34.90
2024-02-08T19:03:41.454Z,33.20
2024-02-08T19:06:16.517Z,34.80
2024-02-08T19:08:47.769Z,34.20
2024-02-08T19:11:20.907Z,36.00
2024-02-08T19:13:53.153Z,40.20
2024-02-08T19:19:02.526Z,38.20
2024-02-08T19:21:39.196Z,41.20
2024-02-08T19:24:14.114Z,36.50
2024-02-08T19:26:45.340Z,37.90
2024-02-08T19:29:18.530Z,36.10
2024-02-08T19:31:49.218Z,37.30
2024-02-08T19:34:22.071Z,38.20
2024-02-08T19:36:54.242Z,36.80
2024-02-08T19:39:37.829Z,36.20
2024-02-08T19:42:19.817Z,37.40
2024-02-08T19:44:55.625Z,34.60
2024-02-08T19:47:29.842Z,36.30
2024-02-08T19:50:05.057Z,36.80
2024-02-08T19:52:41.716Z,36.80
2024-02-08T19:55:22.840Z,38.90
2024-02-08T19:57:58.536Z,35.80
2024-02-08T20:00:30.791Z,36.50
2024-02-08T20:05:43.172Z,33.80
2024-02-08T20:08:14.140Z,30.10
2024-02-08T20:10:47.930Z,31.90
2024-02-08T20:13:25.661Z,31.30
2024-02-08T20:15:58.235Z,31.50
2024-02-08T20:18:30.568Z,28.40
2024-02-08T20:23:40.921Z,29.90
2024-02-08T20:26:13.400Z,26.90
2024-02-08T20:28:45.431Z,29.20
2024-02-08T20:31:18.632Z,28.40
2024-02-08T20:33:50.774Z,31.10
2024-02-08T20:36:22.677Z,30.80
2024-02-08T20:38:55.051Z,33.20
2024-02-08T20:41:26.232Z,38.10
2024-02-08T20:44:07.150Z,33.10
2024-02-08T20:46:41.802Z,33.60
2024-02-08T20:49:13.633Z,34.80
2024-02-08T20:51:44.720Z,32.50
2024-02-08T20:54:16.577Z,34.40
2024-02-08T20:56:54.013Z,30.30
2024-02-08T20:59:29.032Z,35.60
2024-02-08T21:02:04.063Z,30.30
2024-02-08T21:04:34.812Z,35.40
2024-02-08T21:07:07.546Z,31.00
2024-02-08T21:09:39.696Z,31.90
2024-02-08T21:12:11.527Z,25.30
2024-02-08T21:14:44.039Z,28.50
2024-02-08T21:17:16.473Z,30.10
2024-02-08T21:19:51.465Z,28.10
2024-02-08T21:22:23.968Z,29.30
2024-02-08T21:24:54.763Z,25.30
2024-02-08T21:27:25.693Z,27.40
2024-02-08T21:29:56.439Z,32.40
2024-02-08T21:32:27.406Z,29.60
2024-02-08T21:34:58.568Z,31.50
2024-02-08T21:37:29.356Z,31.20
2024-02-08T21:40:02.499Z,28.40
2024-02-08T21:42:33.585Z,29.10
2024-02-08T21:45:04.345Z,29.00
2024-02-08T21:47:35.679Z,34.10
2024-02-08T21:50:08.824Z,29.60
2024-02-08T21:52:40.569Z,30.20
2024-02-08T21:55:11.693Z,34.30
2024-02-08T21:57:42.433Z,26.40
2024-02-08T22:00:16.311Z,28.70
2024-02-08T22:02:50.689Z,29.60
2024-02-08T22:05:21.501Z,33.00
2024-02-08T22:07:52.611Z,28.20
2024-02-08T22:10:23.814Z,31.70
2024-02-08T22:12:54.640Z,31.00
2024-02-08T22:15:25.364Z,30.00
2024-02-08T22:17:56.113Z,32.10
2024-02-08T22:20:26.858Z,30.60
2024-02-08T22:22:58.214Z,30.40
2024-02-08T22:25:29.194Z,33.40
2024-02-08T22:28:01.516Z,33.60
2024-02-08T22:33:02.659Z,31.00
2024-02-08T22:35:33.438Z,30.00
2024-02-08T22:38:07.293Z,32.60
2024-02-08T22:40:38.232Z,35.30
2024-02-08T22:43:09.283Z,34.30
2024-02-08T22:45:41.262Z,33.20
2024-02-08T22:48:14.376Z,36.50
2024-02-08T22:50:47.517Z,35.50
2024-02-08T22:53:21.092Z,39.10
2024-02-08T22:55:52.693Z,36.40
2024-02-08T22:58:25.524Z,36.20
2024-02-08T23:01:22.393Z,35.20
2024-02-08T23:03:53.356Z,34.70
2024-02-08T23:06:24.233Z,35.20
2024-02-08T23:08:55.787Z,34.60
2024-02-08T23:11:26.534Z,33.90
2024-02-08T23:13:57.255Z,33.00
2024-02-08T23:16:28.011Z,34.30
2024-02-08T23:19:01.395Z,36.40
2024-02-08T23:21:34.789Z,33.40
2024-02-08T23:24:08.732Z,34.70
2024-02-08T23:26:44.470Z,32.50
2024-02-08T23:29:17.028Z,33.00
2024-02-08T23:31:47.729Z,32.20
2024-02-08T23:34:18.644Z,32.30
2024-02-08T23:36:56.245Z,31.80
2024-02-08T23:39:29.662Z,36.40
2024-02-08T23:42:00.421Z,33.10
2024-02-08T23:44:31.170Z,31.60
2024-02-08T23:47:01.886Z,34.40
2024-02-08T23:49:32.727Z,32.10
2024-02-08T23:52:04.782Z,28.50
2024-02-08T23:54:35.610Z,28.30
2024-02-08T23:57:06.788Z,26.60
2024-02-08T23:59:38.220Z,29.00
